Miami International Airport
KMIA : now visible

Airfield :











YOU CAN JOIN US ON...

 
LOGIN :

Register | Disclaimer

   EN    FR    IT 

 









Legend :    VFR   Marginal VFR   IFR   Intensive IFR   Very Intensive IFR
Visi :
Ceiling :
>= 8 km
>= 3000ft
5 to 8 km
1000 to 3000 ft
1500m to 5 km
500 to 1000 ft
800 to 1500m
200 to 500 ft
< 800m
< 200 ft
Symbols :   Thunderstorms  Fog  Heavy snow  Heavy precipitations  Wind > 20 kt






- Airport Elevation : 8 ft
- IATA code : MIA


KMIA - Miami International

CURRENT METAR :
  • 220853Z 04004KT 10SM FEW065 FEW100 SCT210 26/24 A3003 RMK AO2 SLP169 60000 T02610244 55006 $

EXPIRED METARs :
  • 220753Z 02004KT 10SM FEW065 SCT100 26/24 A3003 RMK AO2 SLP167 T02610239 $
  • 220653Z 04004KT 10SM FEW025 FEW065 SCT100 26/23 A3005 RMK AO2 RAE02 SLP175 P0000 T02610233 $
  • 220553Z 13003KT 10SM -RA FEW025 SCT065 SCT100 26/23 A3005 RMK AO2 RAE22B28 TSE23 SLP175 OCNL LTGIC DSNT NW-NE CB DSNT NW-NE MOV NW P0004 60055 T02560233 10294 20244 58008 $
  • 220527Z 00000KT 10SM FEW025 SCT035 SCT065 25/23 A3006 RMK AO2 RAE22 TSE23 OCNL LTGIC DSNT NW-NE CB DSNT NW-NE MOV NW P0001 T02500233 $
  • 220453Z 10009KT 5SM -TSRA BR FEW025CB SCT035 BKN065 24/23 A3009 RMK AO2 PK WND 13031/0431 TSE02B06 SLP189 OCNL LTGIC NW-NE TS NW-NE MOV NW P0044 T02440233 403280244 $

TAF KMIA
Valid from the 22 at 09:00 until the 23 at 12:00 UTC


220838Z 2209/2312 11008KT P6SM VCSH SCT025 SCT050
FM221500 11010KT P6SM VCTS SCT030CB BKN050
FM230000 13008KT P6SM VCSH SCT030 BKN050
KZMA FIR / North America



MET'MAP, your aeronautical weather chart ! - Copyright ORBIFLY December 2007 - Disclaimer

ORBIFLY MET'MAP TEAM :

Programming & Development : Alexandra Zaïnal
Original concept : Baudouin d'Aumeries
Technical & hardware support : Manuel Goepfert
Assistance : Marc-Olivier Méhu




SOURCES & CREDITS :

   NOAA       Earth
Advisory